Time;durP1;ratioP1;P1;durP2;ratioP2;P2;SDS_P1;SDS_P2;PMS_P1;PMS_P2;Temp;Humidity;BMP_temperature;BMP_pressure;BME280_temperature;BME280_humidity;BME280_pressure;Samples;Min_cycle;Max_cycle;Signal;HPM_P1;HPM_P2
2023/12/30 00:00:58;;;;;;;1999.90;999.90;;;11.70;99.90;;;;;;5054838;28;20021;-77
2023/12/30 00:03:24;;;;;;;1999.90;999.90;;;11.70;99.90;;;;;;5036814;28;20025;-76
2023/12/30 00:05:49;;;;;;;1999.90;999.90;;;11.70;99.90;;;;;;5054806;28;20480;-77
2023/12/30 00:08:16;;;;;;;1999.90;999.90;;;11.70;99.90;;;;;;5054712;28;20029;-77
2023/12/30 00:10:41;;;;;;;1999.90;999.90;;;11.60;99.90;;;;;;5054500;28;20108;-77
2023/12/30 00:13:07;;;;;;;1999.90;999.90;;;11.60;99.90;;;;;;5054689;28;20119;-77
2023/12/30 00:15:33;;;;;;;1999.90;999.90;;;11.60;99.90;;;;;;5054493;28;20087;-77
2023/12/30 00:17:58;;;;;;;1999.90;999.90;;;11.60;99.90;;;;;;5054473;28;20025;-76
2023/12/30 00:20:25;;;;;;;1999.90;999.90;;;11.60;99.90;;;;;;5054195;28;20044;-77
2023/12/30 00:22:51;;;;;;;1999.90;999.90;;;11.60;99.90;;;;;;5046392;28;20411;-76
2023/12/30 00:25:17;;;;;;;1999.90;999.90;;;11.60;99.90;;;;;;5044120;28;20025;-77
2023/12/30 00:27:42;;;;;;;1999.90;999.90;;;11.60;99.90;;;;;;5054328;28;20040;-77
2023/12/30 00:30:10;;;;;;;1999.90;999.90;;;11.60;99.90;;;;;;5054438;28;20033;-77
2023/12/30 00:32:36;;;;;;;1999.90;999.90;;;11.60;99.90;;;;;;5053616;28;20028;-77
2023/12/30 00:35:02;;;;;;;1999.90;999.90;;;11.60;99.90;;;;;;5054304;28;20052;-77
2023/12/30 00:37:28;;;;;;;1999.90;999.90;;;11.60;99.90;;;;;;5054018;28;20010;-77
2023/12/30 00:39:53;;;;;;;1999.90;999.90;;;11.60;99.90;;;;;;5053767;28;20487;-76
2023/12/30 00:42:19;;;;;;;1999.90;999.90;;;11.60;99.90;;;;;;5054048;28;20155;-75
2023/12/30 00:44:45;;;;;;;1999.90;999.90;;;11.60;99.90;;;;;;5054137;28;20044;-75
2023/12/30 00:47:11;;;;;;;1999.90;999.90;;;11.60;99.90;;;;;;5053787;28;20036;-75
2023/12/30 00:49:37;;;;;;;1999.90;999.90;;;11.60;99.90;;;;;;5053972;28;20047;-75
2023/12/30 00:52:03;;;;;;;1999.90;999.90;;;11.60;99.90;;;;;;5053752;28;20021;-75
2023/12/30 00:54:28;;;;;;;1999.90;999.90;;;11.60;99.90;;;;;;5053975;28;20025;-76
2023/12/30 00:56:54;;;;;;;1999.90;999.90;;;11.60;99.90;;;;;;5035844;28;20071;-76
2023/12/30 00:59:20;;;;;;;1999.90;999.90;;;11.60;99.90;;;;;;5035050;28;20029;-77
2023/12/30 01:01:45;;;;;;;1999.90;999.90;;;11.60;99.90;;;;;;5053519;28;20024;-77
2023/12/30 01:04:12;;;;;;;1999.90;999.90;;;11.60;99.90;;;;;;5052844;28;20056;-75
2023/12/30 01:06:38;;;;;;;1999.90;999.90;;;11.60;99.90;;;;;;5053570;28;20028;-76
2023/12/30 01:09:04;;;;;;;1999.90;999.90;;;11.60;99.90;;;;;;5035547;28;20037;-76
2023/12/30 01:11:30;;;;;;;1999.90;999.90;;;11.60;99.90;;;;;;5053206;28;20056;-76
2023/12/30 01:13:55;;;;;;;1999.90;999.90;;;11.60;99.90;;;;;;5053536;28;20057;-76
2023/12/30 01:16:21;;;;;;;1999.90;999.90;;;11.50;99.90;;;;;;5053086;28;20045;-77
2023/12/30 01:18:47;;;;;;;1999.90;999.90;;;11.50;99.90;;;;;;5053258;28;20032;-77
2023/12/30 01:21:12;;;;;;;1999.90;999.90;;;11.60;99.90;;;;;;5052843;28;20017;-77
2023/12/30 01:23:38;;;;;;;1999.90;999.90;;;11.60;99.90;;;;;;5045210;28;20112;-77
2023/12/30 01:26:04;;;;;;;1999.90;999.90;;;11.60;99.90;;;;;;5042924;28;20531;-77
2023/12/30 01:28:31;;;;;;;1999.90;999.90;;;11.60;99.90;;;;;;5053162;28;20033;-77
2023/12/30 01:30:56;;;;;;;1999.90;999.90;;;11.60;99.90;;;;;;5053283;28;20090;-77
2023/12/30 01:33:22;;;;;;;1999.90;999.90;;;11.60;99.90;;;;;;5053058;28;20483;-77
2023/12/30 01:35:48;;;;;;;1999.90;999.90;;;11.60;99.90;;;;;;5052885;28;20025;-77
2023/12/30 01:38:13;;;;;;;1999.90;999.90;;;11.60;99.90;;;;;;5053069;28;20535;-77
2023/12/30 01:40:39;;;;;;;1999.90;999.90;;;11.60;99.90;;;;;;5052861;28;20104;-77
2023/12/30 01:43:05;;;;;;;1999.90;999.90;;;11.60;99.90;;;;;;5052858;28;20036;-77
2023/12/30 01:45:31;;;;;;;1999.90;999.90;;;11.60;99.90;;;;;;5052923;28;20021;-76
2023/12/30 01:47:58;;;;;;;1999.90;999.90;;;11.60;99.90;;;;;;5052924;28;20091;-76
2023/12/30 01:50:23;;;;;;;1999.90;999.90;;;11.60;99.90;;;;;;5052458;28;20027;-77
2023/12/30 01:52:50;;;;;;;1999.90;999.90;;;11.60;99.90;;;;;;5052649;28;20447;-77
2023/12/30 01:55:18;;;;;;;1999.90;999.90;;;11.60;99.90;;;;;;5052776;28;20462;-78
2023/12/30 01:57:44;;;;;;;1999.90;999.90;;;11.60;99.90;;;;;;5052640;28;20036;-78
2023/12/30 02:00:17;;;;;;;1999.90;999.90;;;11.60;99.90;;;;;;5052684;28;20021;-78
2023/12/30 02:02:43;;;;;;;1999.90;999.90;;;11.60;99.90;;;;;;5052851;28;20040;-78
2023/12/30 02:05:10;;;;;;;1999.90;999.90;;;11.60;99.90;;;;;;5052742;28;20029;-78
2023/12/30 02:07:35;;;;;;;1999.90;999.90;;;11.60;99.90;;;;;;5034631;28;20054;-77
2023/12/30 02:10:03;;;;;;;1999.90;999.90;;;11.70;99.90;;;;;;5052032;28;20096;-77
2023/12/30 02:12:28;;;;;;;1999.90;999.90;;;11.70;99.90;;;;;;5052917;28;20503;-77
2023/12/30 02:14:54;;;;;;;1999.90;999.90;;;11.60;99.90;;;;;;5052381;28;20060;-77
2023/12/30 02:17:20;;;;;;;1999.90;999.90;;;11.70;99.90;;;;;;5052884;28;20028;-77
2023/12/30 02:19:46;;;;;;;1999.90;999.90;;;11.60;99.90;;;;;;5052343;28;20079;-77
2023/12/30 02:22:11;;;;;;;1999.90;999.90;;;11.70;99.90;;;;;;5048394;28;20060;-78
2023/12/30 02:24:37;;;;;;;1999.90;999.90;;;11.70;99.90;;;;;;5041512;28;20420;-78
2023/12/30 02:27:03;;;;;;;1999.90;999.90;;;11.70;99.90;;;;;;5049930;28;20100;-76
2023/12/30 02:29:29;;;;;;;1999.90;999.90;;;11.70;99.90;;;;;;5034529;28;20021;-78
2023/12/30 02:31:54;;;;;;;1999.90;999.90;;;11.70;99.90;;;;;;5052376;28;20025;-78
2023/12/30 02:34:20;;;;;;;1999.90;999.90;;;11.80;99.90;;;;;;5052313;28;20021;-77
2023/12/30 02:36:47;;;;;;;1999.90;999.90;;;11.70;99.90;;;;;;5052149;28;20072;-77
2023/12/30 02:39:12;;;;;;;1999.90;999.90;;;11.70;99.90;;;;;;5034255;28;20472;-77
2023/12/30 02:41:38;;;;;;;1999.90;999.90;;;11.70;99.90;;;;;;5052686;28;20049;-76
2023/12/30 02:44:05;;;;;;;1999.90;999.90;;;11.70;99.90;;;;;;5052335;28;20443;-77
2023/12/30 02:46:31;;;;;;;1999.90;999.90;;;11.70;99.90;;;;;;5052399;28;20032;-77
2023/12/30 02:48:57;;;;;;;1999.90;999.90;;;11.70;99.90;;;;;;5052092;28;20021;-77
2023/12/30 02:51:23;;;;;;;1999.90;999.90;;;11.60;99.90;;;;;;5052070;28;20072;-77
2023/12/30 02:53:49;;;;;;;1999.90;999.90;;;11.60;99.90;;;;;;5034279;28;20029;-77
2023/12/30 02:56:22;;;;;;;1999.90;999.90;;;11.50;99.90;;;;;;5052066;28;20036;-77
2023/12/30 02:58:52;;;;;;;1999.90;999.90;;;11.50;99.90;;;;;;5052281;28;20021;-77
2023/12/30 03:01:18;;;;;;;1999.90;999.90;;;11.50;99.90;;;;;;5052097;28;20025;-77
2023/12/30 03:03:43;;;;;;;1999.90;999.90;;;11.50;99.90;;;;;;5051951;28;20028;-76
2023/12/30 03:06:12;;;;;;;1999.90;999.90;;;11.50;99.90;;;;;;5051432;28;20427;-76
2023/12/30 03:08:37;;;;;;;1999.90;999.90;;;11.50;99.90;;;;;;5051902;28;20025;-76
2023/12/30 03:11:03;;;;;;;1999.90;999.90;;;11.40;99.90;;;;;;5051725;28;20152;-77
2023/12/30 03:13:29;;;;;;;1999.90;999.90;;;11.30;99.90;;;;;;5051971;28;20025;-77
2023/12/30 03:15:55;;;;;;;1999.90;999.90;;;11.20;99.90;;;;;;5033731;28;20531;-76
2023/12/30 03:18:20;;;;;;;1999.90;999.90;;;11.20;99.90;;;;;;5052170;28;20021;-77
2023/12/30 03:20:46;;;;;;;1999.90;999.90;;;11.20;99.90;;;;;;5051749;28;20025;-77
2023/12/30 03:23:11;;;;;;;1999.90;999.90;;;11.20;99.90;;;;;;5045941;28;20047;-77
2023/12/30 03:25:37;;;;;;;1999.90;999.90;;;11.30;99.90;;;;;;5045607;28;20025;-77
2023/12/30 03:28:03;;;;;;;1999.90;999.90;;;11.30;99.90;;;;;;5055728;28;20025;-77
2023/12/30 03:30:28;;;;;;;1999.90;999.90;;;11.30;99.90;;;;;;5055586;28;20083;-76
2023/12/30 03:32:54;;;;;;;1999.90;999.90;;;11.20;99.90;;;;;;5055216;28;20021;-77
2023/12/30 03:35:20;;;;;;;1999.90;999.90;;;11.20;99.90;;;;;;5037249;28;20033;-77
2023/12/30 03:37:45;;;;;;;1999.90;999.90;;;11.20;99.90;;;;;;5054957;28;20028;-77
2023/12/30 03:40:11;;;;;;;1999.90;999.90;;;11.20;99.90;;;;;;5037105;28;20060;-77
2023/12/30 03:42:37;;;;;;;1999.90;999.90;;;11.20;99.90;;;;;;5055586;28;20476;-77
2023/12/30 03:45:04;;;;;;;1999.90;999.90;;;11.10;99.90;;;;;;5055063;28;20029;-76
2023/12/30 03:47:30;;;;;;;1999.90;999.90;;;11.10;99.90;;;;;;5037215;28;20025;-77
2023/12/30 03:49:56;;;;;;;1999.90;999.90;;;11.10;99.90;;;;;;5037172;28;20081;-76
2023/12/30 03:52:21;;;;;;;1999.90;999.90;;;11.00;99.90;;;;;;5037091;28;20029;-76
2023/12/30 03:54:47;;;;;;;1999.90;999.90;;;10.90;99.90;;;;;;5055065;28;20070;-76
2023/12/30 03:57:13;;;;;;;1999.90;999.90;;;10.90;99.90;;;;;;5037189;28;20147;-77
2023/12/30 03:59:39;;;;;;;1999.90;999.90;;;10.90;99.90;;;;;;5055081;28;20167;-77
2023/12/30 04:02:05;;;;;;;1999.90;999.90;;;10.90;99.90;;;;;;5036809;28;20120;-77
2023/12/30 04:04:30;;;;;;;1999.90;999.90;;;10.90;99.90;;;;;;5054836;28;20392;-77
2023/12/30 04:06:56;;;;;;;1999.90;999.90;;;10.90;99.90;;;;;;5054101;28;20079;-76
2023/12/30 04:09:21;;;;;;;1999.90;999.90;;;10.90;99.90;;;;;;5054876;28;20053;-77
2023/12/30 04:11:47;;;;;;;1999.90;999.90;;;10.80;99.90;;;;;;5054260;28;20033;-77
2023/12/30 04:14:13;;;;;;;1999.90;999.90;;;10.90;99.90;;;;;;5054396;28;20033;-77
2023/12/30 04:16:38;;;;;;;1999.90;999.90;;;10.90;99.90;;;;;;5054698;28;20442;-77
2023/12/30 04:19:04;;;;;;;1999.90;999.90;;;10.80;99.90;;;;;;5054511;28;20434;-77
2023/12/30 04:21:29;;;;;;;1999.90;999.90;;;10.80;99.90;;;;;;5033338;28;20026;-76
2023/12/30 04:23:55;;;;;;;1999.90;999.90;;;10.80;99.90;;;;;;5046381;28;20067;-77
2023/12/30 04:26:21;;;;;;;1999.90;999.90;;;10.80;99.90;;;;;;5045982;28;20029;-77
2023/12/30 04:28:46;;;;;;;1999.90;999.90;;;10.80;99.90;;;;;;5053102;28;20070;-77
2023/12/30 04:31:12;;;;;;;1999.90;999.90;;;10.80;99.90;;;;;;5036575;28;20032;-77
2023/12/30 04:33:38;;;;;;;1999.90;999.90;;;10.70;99.90;;;;;;5054218;28;20495;-76
2023/12/30 04:36:03;;;;;;;1999.90;999.90;;;10.70;99.90;;;;;;5053976;28;20051;-76
2023/12/30 04:38:29;;;;;;;1999.90;999.90;;;10.70;99.90;;;;;;5053700;28;20100;-76
2023/12/30 04:40:56;;;;;;;1999.90;999.90;;;10.70;99.90;;;;;;5053891;28;20028;-77
2023/12/30 04:43:21;;;;;;;1999.90;999.90;;;10.70;99.90;;;;;;5054336;28;20021;-77
2023/12/30 04:45:47;;;;;;;1999.90;999.90;;;10.70;99.90;;;;;;5053846;28;20040;-77
2023/12/30 04:48:12;;;;;;;1999.90;999.90;;;10.70;99.90;;;;;;5054202;28;20021;-76
2023/12/30 04:50:38;;;;;;;1999.90;999.90;;;10.80;99.90;;;;;;5053681;28;20407;-76
2023/12/30 04:53:04;;;;;;;1999.90;999.90;;;10.80;99.90;;;;;;5053986;28;20393;-77
2023/12/30 04:55:29;;;;;;;1999.90;999.90;;;10.80;99.90;;;;;;5051754;28;20039;-77
2023/12/30 04:57:55;;;;;;;1999.90;999.90;;;10.80;99.90;;;;;;5053520;28;20055;-77
2023/12/30 05:00:21;;;;;;;1999.90;999.90;;;10.90;99.90;;;;;;5035888;28;20543;-77
2023/12/30 05:02:46;;;;;;;1999.90;999.90;;;10.90;99.90;;;;;;5053599;28;20396;-76
2023/12/30 05:05:12;;;;;;;1999.90;999.90;;;10.90;99.90;;;;;;5053736;28;20040;-77
2023/12/30 05:07:38;;;;;;;1999.90;999.90;;;10.90;99.90;;;;;;5053639;28;20036;-77
2023/12/30 05:10:04;;;;;;;1999.90;999.90;;;10.80;99.90;;;;;;5053058;28;20033;-77
2023/12/30 05:12:29;;;;;;;1999.90;999.90;;;10.80;99.90;;;;;;5053597;28;20039;-77
2023/12/30 05:14:55;;;;;;;1999.90;999.90;;;10.80;99.90;;;;;;5053319;28;20135;-77
2023/12/30 05:17:21;;;;;;;1999.90;999.90;;;10.80;99.90;;;;;;5053526;28;20025;-77
2023/12/30 05:19:46;;;;;;;1999.90;999.90;;;10.80;99.90;;;;;;5052566;28;20036;-77
2023/12/30 05:22:12;;;;;;;1999.90;999.90;;;10.80;99.90;;;;;;5048351;28;20029;-77
2023/12/30 05:24:37;;;;;;;1999.90;999.90;;;10.80;99.90;;;;;;5026917;28;20025;-77
2023/12/30 05:27:03;;;;;;;1999.90;999.90;;;10.80;99.90;;;;;;5053077;28;20028;-76
2023/12/30 05:29:29;;;;;;;1999.90;999.90;;;10.80;99.90;;;;;;5051257;28;20059;-77
2023/12/30 05:31:54;;;;;;;1999.90;999.90;;;10.80;99.90;;;;;;5053069;28;20104;-77
2023/12/30 05:34:20;;;;;;;1999.90;999.90;;;10.80;99.90;;;;;;5053252;28;20513;-77
2023/12/30 05:36:46;;;;;;;1999.90;999.90;;;10.80;99.90;;;;;;5052891;28;20036;-77
2023/12/30 05:39:14;;;;;;;1999.90;999.90;;;10.80;99.90;;;;;;5052952;28;20035;-77
2023/12/30 05:41:39;;;;;;;1999.90;999.90;;;10.80;99.90;;;;;;5046487;28;20036;-77
2023/12/30 05:44:05;;;;;;;1999.90;999.90;;;10.80;99.90;;;;;;5021360;28;20029;-77
2023/12/30 05:46:31;;;;;;;1999.90;999.90;;;10.90;99.90;;;;;;5032820;28;20388;-77
2023/12/30 05:48:57;;;;;;;1999.90;999.90;;;10.90;99.90;;;;;;5032987;28;20488;-76
2023/12/30 05:51:22;;;;;;;1999.90;999.90;;;10.90;99.90;;;;;;5033032;28;20031;-76
2023/12/30 05:53:48;;;;;;;1999.90;999.90;;;10.90;99.90;;;;;;5032757;28;20036;-76
2023/12/30 05:56:27;;;;;;;1999.90;999.90;;;10.90;99.90;;;;;;5015165;28;20037;-76
2023/12/30 05:58:54;;;;;;;1999.90;999.90;;;10.90;99.90;;;;;;5032896;28;20022;-76
2023/12/30 06:01:19;;;;;;;1999.90;999.90;;;10.90;99.90;;;;;;5032916;28;20033;-76
2023/12/30 06:03:45;;;;;;;1999.90;999.90;;;10.90;99.90;;;;;;5014983;28;20076;-77
2023/12/30 06:06:11;;;;;;;1999.90;999.90;;;10.90;99.90;;;;;;5014962;28;20067;-76
2023/12/30 06:08:36;;;;;;;1999.90;999.90;;;10.90;99.90;;;;;;5032676;28;20060;-76
2023/12/30 06:11:02;;;;;;;1999.90;999.90;;;10.80;99.90;;;;;;5024671;28;20042;-76
2023/12/30 06:13:27;;;;;;;1999.90;999.90;;;10.80;99.90;;;;;;5043598;28;20448;-76
2023/12/30 06:15:56;;;;;;;1999.90;999.90;;;10.80;99.90;;;;;;5032323;28;20089;-77
2023/12/30 06:18:26;;;;;;;1999.90;999.90;;;10.80;99.90;;;;;;5014785;28;20047;-77
2023/12/30 06:20:52;;;;;;;1999.90;999.90;;;10.80;99.90;;;;;;5043777;28;20108;-76
2023/12/30 06:23:17;;;;;;;1999.90;999.90;;;10.80;99.90;;;;;;5044513;28;20102;-77
2023/12/30 06:25:43;;;;;;;1999.90;999.90;;;10.80;99.90;;;;;;5041915;28;20033;-77
2023/12/30 06:28:09;;;;;;;1999.90;999.90;;;10.80;99.90;;;;;;5052315;28;20036;-77
2023/12/30 06:30:34;;;;;;;1999.90;999.90;;;10.80;99.90;;;;;;5052436;28;20032;-77
2023/12/30 06:33:06;;;;;;;1999.90;999.90;;;10.80;99.90;;;;;;5052163;28;20025;-77
2023/12/30 06:35:34;;;;;;;1999.90;999.90;;;10.80;99.90;;;;;;5034255;28;20036;-77
2023/12/30 06:38:01;;;;;;;1999.90;999.90;;;10.80;99.90;;;;;;5052354;28;20044;-77
2023/12/30 06:40:27;;;;;;;1999.90;999.90;;;10.80;99.90;;;;;;5052122;28;20025;-75
2023/12/30 06:42:52;;;;;;;1999.90;999.90;;;10.90;99.90;;;;;;5052220;28;20013;-78
2023/12/30 06:45:18;;;;;;;1999.90;999.90;;;10.90;99.90;;;;;;5052323;28;20488;-77
2023/12/30 06:47:44;;;;;;;1999.90;999.90;;;10.90;99.90;;;;;;5052313;28;20395;-76
2023/12/30 06:50:12;;;;;;;1999.90;999.90;;;10.90;99.90;;;;;;5052216;28;20399;-78
2023/12/30 06:52:38;;;;;;;1999.90;999.90;;;10.80;99.90;;;;;;5044112;28;20108;-77
2023/12/30 06:55:05;;;;;;;1999.90;999.90;;;10.80;99.90;;;;;;5034290;28;20113;-76
2023/12/30 06:57:31;;;;;;;1999.90;999.90;;;10.80;99.90;;;;;;5033214;28;20021;-76
2023/12/30 06:59:57;;;;;;;1999.90;999.90;;;10.80;99.90;;;;;;5036025;28;20499;-77
2023/12/30 07:02:22;;;;;;;1999.90;999.90;;;10.70;99.90;;;;;;5036366;28;20083;-77
2023/12/30 07:04:48;;;;;;;1999.90;999.90;;;10.60;99.90;;;;;;5035410;28;20028;-77
2023/12/30 07:07:13;;;;;;;1999.90;999.90;;;10.50;99.90;;;;;;5038734;28;20439;-76
2023/12/30 07:09:39;;;;;;;1999.90;999.90;;;10.50;99.90;;;;;;5055439;28;20029;-76
2023/12/30 07:12:05;;;;;;;1999.90;999.90;;;10.40;99.90;;;;;;5055796;28;20055;-76
2023/12/30 07:14:34;;;;;;;1999.90;999.90;;;10.30;99.90;;;;;;5055681;28;20045;-76
2023/12/30 07:17:00;;;;;;;1999.90;999.90;;;10.20;99.90;;;;;;5037644;28;20036;-77
2023/12/30 07:19:26;;;;;;;1999.90;999.90;;;10.20;99.90;;;;;;5055629;28;20040;-76
2023/12/30 07:21:53;;;;;;;1999.90;999.90;;;10.10;99.90;;;;;;5052458;28;20071;-76
2023/12/30 07:24:18;;;;;;;1999.90;999.90;;;10.10;99.90;;;;;;5046579;28;20076;-77
2023/12/30 07:26:44;;;;;;;1999.90;999.90;;;10.20;99.90;;;;;;5050573;28;20439;-76
2023/12/30 07:29:11;;;;;;;1999.90;999.90;;;10.20;99.90;;;;;;5037446;28;20052;-76
2023/12/30 07:31:37;;;;;;;1999.90;999.90;;;10.20;99.90;;;;;;5055444;28;20115;-76
2023/12/30 07:34:04;;;;;;;1999.90;999.90;;;10.10;99.90;;;;;;5055137;28;20618;-76
2023/12/30 07:36:30;;;;;;;1999.90;999.90;;;10.10;99.90;;;;;;5055120;28;20067;-77
2023/12/30 07:38:57;;;;;;;1999.90;999.90;;;10.10;99.90;;;;;;5055139;28;20032;-76
2023/12/30 07:41:22;;;;;;;1999.90;999.90;;;10.00;99.90;;;;;;5055501;28;20025;-76
2023/12/30 07:43:48;;;;;;;1999.90;999.90;;;9.90;99.90;;;;;;5055086;28;20538;-77
2023/12/30 07:46:14;;;;;;;1999.90;999.90;;;9.90;99.90;;;;;;5055544;28;20071;-76
2023/12/30 07:48:40;;;;;;;1999.90;999.90;;;9.90;99.90;;;;;;5055359;28;20025;-77
2023/12/30 07:51:06;;;;;;;1999.90;999.90;;;9.80;99.90;;;;;;5054950;28;20056;-76
2023/12/30 07:53:32;;;;;;;1999.90;999.90;;;9.90;99.90;;;;;;5053357;28;20104;-76
2023/12/30 07:55:57;;;;;;;1999.90;999.90;;;9.80;99.90;;;;;;5045157;28;20026;-75
2023/12/30 07:58:23;;;;;;;1999.90;999.90;;;9.80;99.90;;;;;;5035397;28;20415;-76
2023/12/30 08:00:49;;;;;;;1999.90;999.90;;;9.70;99.90;;;;;;5034966;28;20516;-76
2023/12/30 08:03:15;;;;;;;1999.90;999.90;;;9.70;99.90;;;;;;5033564;28;20032;-76
2023/12/30 08:05:40;;;;;;;1999.90;999.90;;;9.70;99.90;;;;;;5046160;28;20130;-77
2023/12/30 08:08:08;;;;;;;1999.90;999.90;;;9.70;99.90;;;;;;5034521;28;20040;-76
2023/12/30 08:10:34;;;;;;;1999.90;999.90;;;9.70;99.90;;;;;;5025555;28;20036;-76
2023/12/30 08:13:00;;;;;;;1999.90;999.90;;;9.60;99.90;;;;;;5046558;28;20033;-76
2023/12/30 08:15:26;;;;;;;1999.90;999.90;;;9.60;99.90;;;;;;5034474;28;20060;-76
2023/12/30 08:17:52;;;;;;;1999.90;999.90;;;9.60;99.90;;;;;;5034590;28;20021;-76
2023/12/30 08:20:18;;;;;;;1999.90;999.90;;;9.60;99.90;;;;;;5039520;28;20021;-76
2023/12/30 08:22:44;;;;;;;1999.90;999.90;;;9.50;99.90;;;;;;5043493;28;20056;-76
2023/12/30 08:25:12;;;;;;;1999.90;999.90;;;9.60;99.90;;;;;;5044869;28;20041;-76
2023/12/30 08:27:38;;;;;;;1999.90;999.90;;;9.60;99.90;;;;;;5054652;28;20040;-75
2023/12/30 08:30:04;;;;;;;1999.90;999.90;;;9.60;99.90;;;;;;5054298;28;20111;-76
2023/12/30 08:32:30;;;;;;;1999.90;999.90;;;9.60;99.90;;;;;;5054241;28;20029;-76
2023/12/30 08:34:57;;;;;;;1999.90;999.90;;;9.60;99.90;;;;;;5053899;28;20025;-76
2023/12/30 08:37:23;;;;;;;1999.90;999.90;;;9.60;99.90;;;;;;5054341;28;20058;-76
2023/12/30 08:39:50;;;;;;;1999.90;999.90;;;9.60;99.90;;;;;;5053759;28;20021;-76
2023/12/30 08:42:16;;;;;;;1999.90;999.90;;;9.70;99.90;;;;;;5046272;28;20403;-76
2023/12/30 08:44:43;;;;;;;1999.90;999.90;;;9.70;99.90;;;;;;5021528;28;20022;-76
2023/12/30 08:47:12;;;;;;;1999.90;999.90;;;9.70;99.90;;;;;;5034098;28;20032;-76
2023/12/30 08:49:38;;;;;;;1999.90;999.90;;;9.70;99.90;;;;;;5033456;28;20018;-76
2023/12/30 08:52:05;;;;;;;1999.90;999.90;;;9.70;99.90;;;;;;5016218;28;20480;-77
2023/12/30 08:54:31;;;;;;;1999.90;999.90;;;9.80;99.90;;;;;;5044931;28;20025;-76
2023/12/30 08:56:57;;;;;;;1999.90;999.90;;;9.80;99.90;;;;;;5053751;28;20032;-76
2023/12/30 08:59:24;;;;;;;1999.90;999.90;;;9.80;99.90;;;;;;5052463;28;20024;-77
2023/12/30 09:01:51;;;;;;;1999.90;999.90;;;9.70;99.90;;;;;;5035897;28;20454;-76
2023/12/30 09:04:17;;;;;;;1999.90;999.90;;;9.70;99.90;;;;;;5035820;28;20021;-76
2023/12/30 09:06:42;;;;;;;1999.90;999.90;;;9.80;99.90;;;;;;5029069;28;20056;-77
2023/12/30 09:09:08;;;;;;;1999.90;999.90;;;9.90;99.90;;;;;;5042156;28;20033;-76
2023/12/30 09:11:37;;;;;;;1999.90;999.90;;;9.90;99.90;;;;;;5033422;28;20029;-76
2023/12/30 09:14:05;;;;;;;1999.90;999.90;;;10.00;99.90;;;;;;5053445;28;20020;-76
2023/12/30 09:16:30;;;;;;;1999.90;999.90;;;10.10;99.90;;;;;;5052199;28;20396;-76
2023/12/30 09:18:56;;;;;;;1999.90;999.90;;;10.20;99.90;;;;;;5053413;28;20067;-76
2023/12/30 09:21:21;;;;;;;1999.90;999.90;;;10.20;99.90;;;;;;5052309;28;20033;-76
2023/12/30 09:23:47;;;;;;;1999.90;999.90;;;10.30;99.90;;;;;;5043907;28;20472;-77
2023/12/30 09:26:14;;;;;;;1999.90;999.90;;;10.30;99.90;;;;;;5044126;28;20110;-77
2023/12/30 09:28:39;;;;;;;1999.90;999.90;;;10.20;99.90;;;;;;5053387;28;20100;-76
2023/12/30 09:31:05;;;;;;;1999.90;999.90;;;10.00;99.90;;;;;;5052919;28;20033;-76
2023/12/30 09:33:31;;;;;;;1999.90;999.90;;;10.10;99.90;;;;;;5035535;28;20100;-76
2023/12/30 09:35:57;;;;;;;1999.90;999.90;;;10.10;99.90;;;;;;5034814;28;20480;-77
2023/12/30 09:38:23;;;;;;;1999.90;999.90;;;10.00;99.90;;;;;;5053202;28;20057;-76
2023/12/30 09:40:53;;;;;;;1999.90;999.90;;;10.00;99.90;;;;;;5052975;28;20486;-76
2023/12/30 09:43:24;;;;;;;1999.90;999.90;;;10.00;99.90;;;;;;5053060;28;20024;-76
2023/12/30 09:45:51;;;;;;;1999.90;999.90;;;10.20;99.90;;;;;;5053108;28;20112;-76
2023/12/30 09:48:20;;;;;;;1999.90;999.90;;;10.20;99.90;;;;;;5052965;28;20100;-77
2023/12/30 09:50:50;;;;;;;1999.90;999.90;;;10.30;99.90;;;;;;5052975;28;20029;-76
2023/12/30 09:53:16;;;;;;;1999.90;999.90;;;10.20;99.90;;;;;;5053234;28;20052;-77
2023/12/30 09:55:46;;;;;;;1999.90;999.90;;;10.30;99.90;;;;;;5052698;28;20056;-76
2023/12/30 09:58:15;;;;;;;1999.90;999.90;;;10.30;99.90;;;;;;5053072;28;20024;-76
2023/12/30 10:00:42;;;;;;;1999.90;999.90;;;10.30;99.90;;;;;;5052815;28;20029;-77
2023/12/30 10:03:09;;;;;;;1999.90;999.90;;;10.40;99.90;;;;;;5034801;28;20021;-77
2023/12/30 10:05:35;;;;;;;1999.90;999.90;;;10.40;99.90;;;;;;5052478;28;20078;-77
2023/12/30 10:08:03;;;;;;;1999.90;999.90;;;10.50;99.90;;;;;;5034093;28;20029;-78
2023/12/30 10:10:51;;;;;;;1999.90;999.90;;;10.50;99.90;;;;;;5052382;28;20506;-76
2023/12/30 10:13:21;;;;;;;1999.90;999.90;;;10.60;99.90;;;;;;5035033;28;20432;-76
2023/12/30 10:15:48;;;;;;;1999.90;999.90;;;10.70;99.90;;;;;;5052373;28;20045;-77
2023/12/30 10:18:15;;;;;;;1999.90;999.90;;;10.80;99.90;;;;;;5052457;28;20096;-78
2023/12/30 10:20:45;;;;;;;1999.90;999.90;;;10.80;99.90;;;;;;5052077;28;20104;-76
2023/12/30 10:23:11;;;;;;;1999.90;999.90;;;11.00;99.90;;;;;;5044153;28;20369;-75
2023/12/30 10:25:37;;;;;;;1999.90;999.90;;;11.10;99.90;;;;;;5045684;28;20083;-76
2023/12/30 10:28:03;;;;;;;1999.90;999.90;;;11.30;99.90;;;;;;5034379;28;20475;-78
2023/12/30 10:30:30;;;;;;;1999.90;999.90;;;11.30;99.90;;;;;;5052493;28;20442;-77
2023/12/30 10:33:13;;;;;;;1999.90;999.90;;;11.30;99.90;;;;;;5055590;28;20043;-74
2023/12/30 10:35:40;;;;;;;;;;;11.30;99.90;;;;;;5056778;28;20025;-78
2023/12/30 10:38:08;;;;;;;1999.90;999.90;;;11.30;99.90;;;;;;5056491;28;20268;-77
2023/12/30 10:40:34;;;;;;;1999.90;999.90;;;11.40;99.90;;;;;;5056062;28;20017;-77
2023/12/30 10:43:01;;;;;;;1999.90;999.90;;;11.50;99.90;;;;;;5056251;28;20446;-76
2023/12/30 10:45:27;;;;;;;1999.90;999.90;;;11.80;99.90;;;;;;5056277;28;20071;-78
2023/12/30 10:47:55;;;;;;;1999.90;999.90;;;12.10;99.90;;;;;;5038421;28;20025;-76
2023/12/30 10:50:23;;;;;;;1999.90;999.90;;;12.20;99.90;;;;;;5056288;28;20017;-76
2023/12/30 10:53:20;;;;;;;1999.90;999.90;;;12.10;99.90;;;;;;5056009;28;20025;-76
2023/12/30 10:55:52;;;;;;;1999.90;999.90;;;11.90;99.90;;;;;;5003969;28;20418;-76
2023/12/30 10:58:19;;;;;;;;;;;11.60;99.90;;;;;;5056706;28;20037;-78
2023/12/30 11:00:52;;;;;;;1999.90;999.90;;;11.50;99.90;;;;;;5056311;28;19905;-77
2023/12/30 11:03:18;;;;;;;;;;;11.40;99.90;;;;;;5038564;28;20111;-77
2023/12/30 11:06:15;;;;;;;1999.90;999.90;;;11.60;99.90;;;;;;5056303;28;19913;-77
2023/12/30 11:08:43;;;;;;;1999.90;999.90;;;11.60;99.90;;;;;;5055678;28;20064;-77
2023/12/30 11:11:12;;;;;;;1999.90;999.90;;;11.30;99.90;;;;;;5055591;28;20124;-77
2023/12/30 11:13:41;;;;;;;1999.90;999.90;;;11.30;99.90;;;;;;5037907;28;20060;-76
2023/12/30 11:16:13;;;;;;;1999.90;999.90;;;11.20;99.90;;;;;;5055504;28;20071;-77
2023/12/30 11:18:53;;;;;;;1999.90;999.90;;;11.40;99.90;;;;;;5037904;28;20029;-76
2023/12/30 11:21:39;;;;;;;1999.90;999.90;;;11.30;99.90;;;;;;5055486;28;20021;-77
2023/12/30 11:24:07;;;;;;;1999.90;999.90;;;11.50;99.90;;;;;;5046152;28;20032;-76
2023/12/30 11:26:36;;;;;;;1999.90;999.90;;;11.50;99.90;;;;;;5048922;28;20021;-75
2023/12/30 11:29:03;;;;;;;1999.90;999.90;;;11.60;99.90;;;;;;5055036;28;20029;-76
2023/12/30 11:31:36;;;;;;;1999.90;999.90;;;11.60;99.90;;;;;;5037341;28;20063;-78
2023/12/30 11:34:02;;;;;;;;;;;11.80;99.90;;;;;;5038082;28;20025;-76
2023/12/30 11:36:28;;;;;;;1999.90;999.90;;;11.80;99.90;;;;;;5037247;28;20367;-78
2023/12/30 11:38:59;;;;;;;1999.90;999.90;;;11.80;99.90;;;;;;5054866;28;20024;-78
2023/12/30 11:41:29;;;;;;;1999.90;999.90;;;11.90;99.90;;;;;;5055614;28;20514;-76
2023/12/30 11:43:56;;;;;;;1999.90;999.90;;;11.90;99.90;;;;;;5054557;28;20021;-76
2023/12/30 11:46:22;;;;;;;1999.90;999.90;;;11.90;99.90;;;;;;5055246;28;20025;-77
2023/12/30 11:48:48;;;;;;;1999.90;999.90;;;11.80;99.90;;;;;;5055403;28;20059;-76
2023/12/30 11:51:20;;;;;;;1999.90;999.90;;;11.80;99.90;;;;;;5055217;28;20111;-76
2023/12/30 11:53:46;;;;;;;1999.90;999.90;;;11.80;99.90;;;;;;5037109;28;20139;-76
2023/12/30 11:56:12;;;;;;;1999.90;999.90;;;11.80;99.90;;;;;;5055175;28;20032;-76
2023/12/30 11:58:38;;;;;;;1999.90;999.90;;;11.90;99.90;;;;;;5055101;28;20025;-77